createdAt,value
2019-05-30T00:01:54.592Z,2.10
2019-05-30T00:04:21.880Z,1.80
2019-05-30T00:06:49.149Z,1.30
2019-05-30T00:09:16.404Z,1.90
2019-05-30T00:11:43.784Z,1.60
2019-05-30T00:14:11.049Z,1.30
2019-05-30T00:16:38.323Z,1.67
2019-05-30T00:19:05.704Z,1.63
2019-05-30T00:21:33.033Z,1.60
2019-05-30T00:24:00.293Z,1.50
2019-05-30T00:26:27.597Z,1.70
2019-05-30T00:28:56.113Z,1.30
2019-05-30T00:31:23.525Z,1.53
2019-05-30T00:33:50.807Z,1.70
2019-05-30T00:36:18.150Z,1.63
2019-05-30T00:38:45.530Z,1.17
2019-05-30T00:41:12.894Z,1.13
2019-05-30T00:43:40.229Z,1.30
2019-05-30T00:46:07.629Z,1.20
2019-05-30T00:48:34.898Z,1.07
2019-05-30T00:51:02.664Z,1.13
2019-05-30T00:53:30.045Z,1.10
2019-05-30T00:55:58.488Z,1.10
2019-05-30T00:58:25.961Z,0.80
2019-05-30T01:00:53.249Z,1.10
2019-05-30T01:03:20.576Z,0.90
2019-05-30T01:05:47.853Z,1.10
2019-05-30T01:08:15.228Z,0.90
2019-05-30T01:10:42.497Z,0.60
2019-05-30T01:13:09.818Z,1.20
2019-05-30T01:15:37.125Z,0.83
2019-05-30T01:18:05.326Z,1.00
2019-05-30T01:20:32.750Z,1.10
2019-05-30T01:23:01.201Z,1.17
2019-05-30T01:25:28.688Z,1.10
2019-05-30T01:27:57.300Z,1.10
2019-05-30T01:30:24.736Z,1.20
2019-05-30T01:32:52.014Z,1.57
2019-05-30T01:35:19.279Z,1.10
2019-05-30T01:37:46.591Z,1.47
2019-05-30T01:40:14.225Z,1.70
2019-05-30T01:42:41.497Z,2.03
2019-05-30T01:45:09.078Z,2.17
2019-05-30T01:47:37.987Z,2.10
2019-05-30T01:50:06.551Z,2.47
2019-05-30T01:52:33.919Z,2.20
2019-05-30T01:55:02.392Z,2.07
2019-05-30T01:57:30.042Z,2.20
2019-05-30T01:59:58.606Z,2.20
2019-05-30T02:02:26.088Z,2.13
2019-05-30T02:04:53.362Z,2.47
2019-05-30T02:07:20.658Z,2.30
2019-05-30T02:09:47.925Z,2.53
2019-05-30T02:12:15.265Z,2.90
2019-05-30T02:14:42.564Z,2.40
2019-05-30T02:17:10.079Z,3.10
2019-05-30T02:19:37.589Z,3.07
2019-05-30T02:22:05.831Z,2.70
2019-05-30T02:24:33.168Z,2.70
2019-05-30T02:27:00.437Z,2.97
2019-05-30T02:29:27.809Z,3.23
2019-05-30T02:31:55.083Z,3.23
2019-05-30T02:34:22.349Z,3.10
2019-05-30T02:36:49.644Z,3.60
2019-05-30T02:39:17.085Z,4.10
2019-05-30T02:41:44.362Z,3.90
2019-05-30T02:44:12.465Z,3.37
2019-05-30T02:46:39.966Z,3.70
2019-05-30T02:49:10.855Z,3.73
2019-05-30T02:51:36.821Z,3.90
2019-05-30T02:54:06.306Z,4.50
2019-05-30T02:56:33.104Z,4.10
2019-05-30T02:59:01.517Z,3.50
2019-05-30T03:01:29.022Z,3.50
2019-05-30T03:03:56.331Z,3.80
2019-05-30T03:06:23.666Z,4.20
2019-05-30T03:08:51.005Z,3.67
2019-05-30T03:11:18.380Z,3.77
2019-05-30T03:13:45.665Z,3.70
2019-05-30T03:16:13.628Z,3.30
2019-05-30T03:18:41.253Z,3.70
2019-05-30T03:21:10.585Z,4.80
2019-05-30T03:23:37.521Z,5.80
2019-05-30T03:26:07.068Z,4.63
2019-05-30T03:28:34.034Z,4.57
2019-05-30T03:31:05.904Z,4.90
2019-05-30T03:33:40.733Z,4.87
2019-05-30T03:36:00.442Z,4.63
2019-05-30T03:38:27.821Z,4.30
2019-05-30T03:40:55.373Z,5.07
2019-05-30T03:43:22.641Z,5.00
2019-05-30T03:45:50.029Z,5.07
2019-05-30T03:48:18.774Z,4.30
2019-05-30T03:50:47.593Z,4.70
2019-05-30T03:53:16.181Z,5.47
2019-05-30T03:55:45.310Z,5.10
2019-05-30T03:58:14.810Z,5.83
2019-05-30T04:00:45.058Z,6.17
2019-05-30T04:03:15.570Z,5.50
2019-05-30T04:05:44.470Z,5.43
2019-05-30T04:08:14.471Z,6.47
2019-05-30T04:10:43.283Z,6.20
2019-05-30T04:13:14.438Z,6.40
2019-05-30T04:15:41.264Z,5.43
2019-05-30T04:18:09.586Z,6.80
2019-05-30T04:20:37.638Z,6.60
2019-05-30T04:23:04.909Z,6.00
2019-05-30T04:25:32.184Z,5.90
2019-05-30T04:27:59.922Z,5.80
2019-05-30T04:30:27.293Z,5.23
2019-05-30T04:32:54.564Z,6.03
2019-05-30T04:35:21.901Z,6.60
2019-05-30T04:37:49.198Z,6.73
2019-05-30T04:40:17.699Z,6.20
2019-05-30T04:42:45.537Z,6.70
2019-05-30T04:45:13.637Z,6.80
2019-05-30T04:47:41.060Z,6.73
2019-05-30T04:50:10.158Z,6.30
2019-05-30T04:52:37.932Z,7.27
2019-05-30T04:55:06.746Z,8.47
2019-05-30T04:57:34.286Z,7.00
2019-05-30T05:00:01.565Z,7.73
2019-05-30T05:02:48.183Z,7.03
2019-05-30T05:05:21.960Z,7.60
2019-05-30T05:07:44.618Z,8.33
2019-05-30T05:10:12.130Z,6.90
2019-05-30T05:12:39.541Z,7.10
2019-05-30T05:15:06.884Z,6.90
2019-05-30T05:17:34.372Z,7.40
2019-05-30T05:20:01.668Z,7.60
2019-05-30T05:22:28.941Z,8.77
2019-05-30T05:24:56.272Z,7.03
2019-05-30T05:27:23.992Z,7.20
2019-05-30T05:29:51.527Z,7.27
2019-05-30T05:32:18.810Z,7.17
2019-05-30T05:34:46.186Z,7.10
2019-05-30T05:37:13.450Z,7.30
2019-05-30T05:39:40.726Z,7.57
2019-05-30T05:42:08.026Z,7.30
2019-05-30T05:44:35.305Z,7.77
2019-05-30T05:47:02.560Z,6.47
2019-05-30T05:49:29.945Z,6.83
2019-05-30T05:51:57.208Z,7.73
2019-05-30T05:54:25.136Z,8.00
2019-05-30T05:56:52.483Z,8.40
2019-05-30T05:59:20.885Z,7.50
2019-05-30T06:01:48.293Z,7.40
2019-05-30T06:04:17.037Z,7.77
2019-05-30T06:06:44.461Z,8.17
2019-05-30T06:09:11.768Z,8.57
2019-05-30T06:11:39.167Z,9.23
2019-05-30T06:14:06.516Z,9.53
2019-05-30T06:16:33.782Z,9.03
2019-05-30T06:19:01.164Z,8.63
2019-05-30T06:21:28.434Z,9.63
2019-05-30T06:23:55.700Z,8.40
2019-05-30T06:26:24.346Z,8.63
2019-05-30T06:28:51.825Z,8.20
2019-05-30T06:31:20.231Z,9.20
2019-05-30T06:33:47.796Z,7.93
2019-05-30T06:36:15.070Z,8.37
2019-05-30T06:38:42.344Z,9.00
2019-05-30T06:41:09.649Z,9.00
2019-05-30T06:43:36.922Z,8.70
2019-05-30T06:46:04.354Z,8.60
2019-05-30T06:48:31.687Z,8.63
2019-05-30T06:50:58.944Z,8.33
2019-05-30T06:53:27.288Z,9.30
2019-05-30T06:55:54.825Z,10.07
2019-05-30T06:58:39.196Z,11.10
2019-05-30T07:00:51.232Z,7.90
2019-05-30T07:03:18.684Z,9.80
2019-05-30T07:05:46.503Z,9.73
2019-05-30T07:08:14.052Z,9.03
2019-05-30T07:10:41.733Z,11.47
2019-05-30T07:13:09.013Z,10.50
2019-05-30T07:15:36.319Z,9.20
2019-05-30T07:18:03.737Z,9.70
2019-05-30T07:20:31.710Z,9.00
2019-05-30T07:22:59.174Z,9.90
2019-05-30T07:25:27.768Z,6.87
2019-05-30T07:27:55.312Z,9.40
2019-05-30T07:30:23.759Z,7.90
2019-05-30T07:32:51.305Z,7.70
2019-05-30T07:35:18.634Z,8.70
2019-05-30T07:37:46.816Z,9.30
2019-05-30T07:40:19.224Z,8.50
2019-05-30T07:42:43.509Z,6.50
2019-05-30T07:45:11.532Z,7.00
2019-05-30T07:47:38.921Z,5.90
2019-05-30T07:50:06.820Z,6.07
2019-05-30T07:52:34.846Z,6.70
2019-05-30T07:55:02.366Z,7.33
2019-05-30T07:57:30.238Z,6.13
2019-05-30T07:59:57.585Z,7.17
2019-05-30T08:02:24.956Z,6.50
2019-05-30T08:04:52.221Z,6.20
2019-05-30T08:07:19.552Z,4.90
2019-05-30T08:09:46.917Z,5.30
2019-05-30T08:12:14.180Z,3.63
2019-05-30T08:14:41.449Z,5.10
2019-05-30T08:17:08.837Z,4.20
2019-05-30T08:19:36.104Z,4.40
2019-05-30T08:22:03.637Z,4.47
2019-05-30T08:24:32.149Z,5.07
2019-05-30T08:26:59.597Z,4.60
2019-05-30T08:29:27.967Z,4.53
2019-05-30T08:31:55.449Z,3.97
2019-05-30T08:34:22.725Z,4.40
2019-05-30T08:36:49.984Z,4.40
2019-05-30T08:39:17.293Z,4.07
2019-05-30T08:41:44.566Z,4.07
2019-05-30T08:44:11.917Z,3.90
2019-05-30T08:46:39.973Z,3.30
2019-05-30T08:49:07.397Z,4.20
2019-05-30T08:51:34.729Z,3.13
2019-05-30T08:54:02.052Z,3.60
2019-05-30T08:56:30.300Z,3.53
2019-05-30T08:58:57.666Z,4.13
2019-05-30T09:01:25.087Z,3.73
2019-05-30T09:03:52.349Z,3.80
2019-05-30T09:06:19.613Z,3.60
2019-05-30T09:08:46.992Z,3.30
2019-05-30T09:11:14.259Z,3.10
2019-05-30T09:13:42.625Z,3.23
2019-05-30T09:16:10.120Z,3.67
2019-05-30T09:18:38.539Z,3.30
2019-05-30T09:21:06.436Z,3.73
2019-05-30T09:23:33.808Z,3.57
2019-05-30T09:26:01.078Z,3.40
2019-05-30T09:28:28.345Z,2.87
2019-05-30T09:30:55.740Z,3.20
2019-05-30T09:33:23.012Z,2.90
2019-05-30T09:35:50.276Z,3.20
2019-05-30T09:38:17.585Z,3.13
2019-05-30T09:40:45.460Z,2.70
2019-05-30T09:43:12.896Z,3.50
2019-05-30T09:45:41.240Z,3.23
2019-05-30T09:48:09.196Z,5.70
2019-05-30T09:50:36.464Z,3.77
2019-05-30T09:53:03.839Z,2.97
2019-05-30T09:55:31.179Z,3.20
2019-05-30T09:57:58.444Z,2.97
2019-05-30T10:00:26.074Z,3.00
2019-05-30T10:02:53.346Z,2.90
2019-05-30T10:05:24.198Z,3.10
2019-05-30T10:07:50.836Z,2.57
2019-05-30T10:10:19.496Z,2.60
2019-05-30T10:12:47.059Z,2.30
2019-05-30T10:15:15.662Z,2.50
2019-05-30T10:17:42.934Z,2.70
2019-05-30T10:20:10.601Z,2.57
2019-05-30T10:22:37.993Z,2.77
2019-05-30T10:25:06.492Z,2.30
2019-05-30T10:27:33.785Z,2.50
2019-05-30T10:30:01.101Z,2.40
2019-05-30T10:32:28.501Z,2.73
2019-05-30T10:34:56.130Z,2.97
2019-05-30T10:37:23.722Z,1.93
2019-05-30T10:39:51.048Z,2.60
2019-05-30T10:42:18.459Z,2.70
2019-05-30T10:44:46.058Z,3.00
2019-05-30T10:47:14.934Z,2.90
2019-05-30T10:49:42.260Z,2.20
2019-05-30T10:52:09.616Z,2.40
2019-05-30T10:54:36.956Z,2.60
2019-05-30T10:57:04.469Z,2.83
2019-05-30T10:59:31.855Z,2.80
2019-05-30T11:01:59.237Z,2.80
2019-05-30T11:04:26.501Z,2.90
2019-05-30T11:07:10.466Z,2.67
2019-05-30T11:09:31.598Z,2.50
2019-05-30T11:11:58.881Z,2.70
2019-05-30T11:14:26.170Z,2.27
2019-05-30T11:16:53.781Z,2.60
2019-05-30T11:19:21.306Z,2.63
2019-05-30T11:21:49.678Z,2.33
2019-05-30T11:24:17.084Z,2.60
2019-05-30T11:26:44.456Z,2.50
2019-05-30T11:29:11.765Z,2.40
2019-05-30T11:31:39.033Z,2.70
2019-05-30T11:34:06.301Z,2.13
2019-05-30T11:36:33.592Z,3.27
2019-05-30T11:39:00.861Z,2.73
2019-05-30T11:41:28.197Z,2.20
2019-05-30T11:43:55.654Z,2.30
2019-05-30T11:46:22.923Z,2.40
2019-05-30T11:48:51.546Z,2.33
2019-05-30T11:51:19.160Z,2.50
2019-05-30T11:53:46.430Z,2.20
2019-05-30T11:56:13.701Z,2.50
2019-05-30T11:58:41.009Z,2.20
2019-05-30T12:01:08.353Z,2.00
2019-05-30T12:03:36.487Z,2.73
2019-05-30T12:06:03.994Z,2.30
2019-05-30T12:08:31.264Z,2.20
2019-05-30T12:10:59.361Z,2.10
2019-05-30T12:13:26.829Z,2.07
2019-05-30T12:15:55.316Z,2.10
2019-05-30T12:18:22.764Z,2.20
2019-05-30T12:20:50.406Z,2.50
2019-05-30T12:23:18.916Z,2.60
2019-05-30T12:25:46.180Z,2.33
2019-05-30T12:28:13.477Z,2.60
2019-05-30T12:30:55.221Z,2.27
2019-05-30T12:33:09.730Z,2.23
2019-05-30T12:35:37.125Z,2.47
2019-05-30T12:38:06.578Z,2.50
2019-05-30T12:40:33.525Z,2.47
2019-05-30T12:43:02.908Z,2.03
2019-05-30T12:45:29.827Z,1.70
2019-05-30T12:47:57.135Z,2.00
2019-05-30T12:50:24.538Z,2.40
2019-05-30T12:52:51.806Z,1.90
2019-05-30T12:55:19.545Z,2.00
2019-05-30T12:57:46.849Z,1.80
2019-05-30T13:00:18.843Z,1.80
2019-05-30T13:02:44.716Z,1.80
2019-05-30T13:05:12.297Z,2.10
2019-05-30T13:07:39.566Z,1.90
2019-05-30T13:10:07.637Z,2.00
2019-05-30T13:12:34.977Z,1.67
2019-05-30T13:15:03.728Z,1.70
2019-05-30T13:17:31.161Z,1.70
2019-05-30T13:19:59.070Z,1.60
2019-05-30T13:22:26.696Z,2.23
2019-05-30T13:24:55.402Z,2.00
2019-05-30T13:27:22.849Z,1.67
2019-05-30T13:29:50.122Z,1.93
2019-05-30T13:32:17.390Z,2.00
2019-05-30T13:34:44.701Z,1.63
2019-05-30T13:37:11.970Z,1.67
2019-05-30T13:39:39.228Z,1.70
2019-05-30T13:42:07.776Z,1.97
2019-05-30T13:44:35.186Z,1.80
2019-05-30T13:47:02.569Z,1.80
2019-05-30T13:49:30.001Z,1.80
2019-05-30T13:51:58.779Z,1.77
2019-05-30T13:54:26.287Z,2.03
2019-05-30T13:56:53.583Z,2.23
2019-05-30T13:59:20.849Z,1.93
2019-05-30T14:01:48.118Z,1.70
2019-05-30T14:04:15.396Z,2.27
2019-05-30T14:06:42.756Z,2.20
2019-05-30T14:09:10.467Z,1.90
2019-05-30T14:11:37.881Z,2.13
2019-05-30T14:14:05.296Z,2.00
2019-05-30T14:16:32.597Z,2.23
2019-05-30T14:19:01.022Z,16.53
2019-05-30T14:21:28.441Z,19.93
2019-05-30T14:23:55.737Z,7.87
2019-05-30T14:26:23.002Z,3.27
2019-05-30T14:28:50.269Z,2.20
2019-05-30T14:31:17.567Z,2.40
2019-05-30T14:33:44.912Z,2.90
2019-05-30T14:36:13.298Z,2.83
2019-05-30T14:38:56.782Z,2.10
2019-05-30T14:41:11.929Z,2.63
2019-05-30T14:43:39.261Z,2.47
2019-05-30T14:46:06.542Z,2.97
2019-05-30T14:48:33.816Z,2.57
2019-05-30T14:51:01.195Z,2.53
2019-05-30T14:53:28.462Z,2.23
2019-05-30T14:55:55.726Z,2.70
2019-05-30T14:58:23.014Z,2.70
2019-05-30T15:00:50.350Z,3.10
2019-05-30T15:03:17.649Z,3.00
2019-05-30T15:05:44.993Z,2.67
2019-05-30T15:08:12.551Z,2.70
2019-05-30T15:10:40.013Z,3.10
2019-05-30T15:13:07.490Z,2.70
2019-05-30T15:15:34.864Z,2.73
2019-05-30T15:18:02.133Z,2.90
2019-05-30T15:20:29.433Z,3.10
2019-05-30T15:22:56.706Z,2.87
2019-05-30T15:25:23.980Z,2.73
2019-05-30T15:27:51.284Z,3.50
2019-05-30T15:30:18.626Z,2.50
2019-05-30T15:32:45.911Z,2.57
2019-05-30T15:35:13.452Z,2.90
2019-05-30T15:37:41.186Z,3.00
2019-05-30T15:40:10.930Z,3.20
2019-05-30T15:42:38.592Z,2.93
2019-05-30T15:45:07.865Z,3.30
2019-05-30T15:47:35.424Z,2.90
2019-05-30T15:50:02.791Z,3.10
2019-05-30T15:52:30.057Z,3.43
2019-05-30T15:54:57.333Z,2.93
2019-05-30T15:57:24.639Z,3.13
2019-05-30T15:59:51.982Z,3.20
2019-05-30T16:02:20.460Z,3.77
2019-05-30T16:04:47.933Z,3.60
2019-05-30T16:07:15.213Z,3.27
2019-05-30T16:09:47.197Z,3.53
2019-05-30T16:12:11.585Z,3.67
2019-05-30T16:14:38.861Z,4.00
2019-05-30T16:17:06.165Z,4.00
2019-05-30T16:19:33.434Z,3.90
2019-05-30T16:22:00.705Z,4.23
2019-05-30T16:24:29.460Z,4.33
2019-05-30T16:26:56.934Z,4.20
2019-05-30T16:29:24.210Z,3.90
2019-05-30T16:31:51.517Z,3.77
2019-05-30T16:34:20.082Z,4.50
2019-05-30T16:36:47.546Z,4.17
2019-05-30T16:39:15.807Z,4.30
2019-05-30T16:41:43.472Z,4.40
2019-05-30T16:44:10.770Z,4.00
2019-05-30T16:46:38.073Z,4.27
2019-05-30T16:49:05.356Z,3.97
2019-05-30T16:51:32.618Z,4.60
2019-05-30T16:53:59.998Z,3.67
2019-05-30T16:56:27.266Z,4.00
2019-05-30T16:58:54.536Z,4.30
2019-05-30T17:01:22.033Z,4.20
2019-05-30T17:03:49.362Z,4.30
2019-05-30T17:06:17.947Z,3.93
2019-05-30T17:08:45.456Z,4.70
2019-05-30T17:11:12.725Z,5.00
2019-05-30T17:13:39.988Z,4.33
2019-05-30T17:16:07.291Z,4.50
2019-05-30T17:18:34.694Z,4.50
2019-05-30T17:21:02.084Z,4.60
2019-05-30T17:23:29.361Z,4.73
2019-05-30T17:25:56.625Z,4.20
2019-05-30T17:28:24.436Z,4.53
2019-05-30T17:30:51.818Z,4.70
2019-05-30T17:33:21.545Z,5.00
2019-05-30T17:35:48.245Z,4.40
2019-05-30T17:38:15.589Z,4.57
2019-05-30T17:40:45.156Z,5.40
2019-05-30T17:43:11.881Z,5.80
2019-05-30T17:45:39.162Z,6.80
2019-05-30T17:48:16.046Z,4.93
2019-05-30T17:50:35.450Z,5.60
2019-05-30T17:53:02.721Z,5.67
2019-05-30T17:55:30.186Z,5.70
2019-05-30T17:57:57.502Z,5.50
2019-05-30T18:00:24.841Z,4.93
2019-05-30T18:02:52.115Z,4.90
2019-05-30T18:05:20.952Z,9.40
2019-05-30T18:07:48.220Z,10.63
2019-05-30T18:10:15.964Z,5.53
2019-05-30T18:12:43.418Z,5.40
2019-05-30T18:15:11.751Z,5.53
2019-05-30T18:17:39.087Z,6.07
2019-05-30T18:20:07.555Z,5.97
2019-05-30T18:22:34.816Z,7.13
2019-05-30T18:25:02.084Z,6.43
2019-05-30T18:27:29.968Z,6.93
2019-05-30T18:29:57.321Z,7.20
2019-05-30T18:32:25.881Z,8.07
2019-05-30T18:34:56.695Z,8.50
2019-05-30T18:37:22.368Z,6.93
2019-05-30T18:39:49.730Z,6.57
2019-05-30T18:42:16.997Z,5.83
2019-05-30T18:44:44.340Z,6.40
2019-05-30T18:47:11.637Z,5.70
2019-05-30T18:49:38.905Z,5.77
2019-05-30T18:52:06.168Z,6.30
2019-05-30T18:54:33.540Z,6.07
2019-05-30T18:57:00.852Z,6.60
2019-05-30T18:59:29.028Z,6.27
2019-05-30T19:01:56.450Z,6.60
2019-05-30T19:04:23.749Z,7.20
2019-05-30T19:06:51.166Z,7.67
2019-05-30T19:09:18.439Z,8.10
2019-05-30T19:11:45.717Z,9.13
2019-05-30T19:14:13.189Z,7.70
2019-05-30T19:16:40.462Z,7.43
2019-05-30T19:19:07.724Z,7.77
2019-05-30T19:21:36.207Z,7.23
2019-05-30T19:24:03.728Z,7.77
2019-05-30T19:26:30.995Z,8.83
2019-05-30T19:28:58.296Z,9.23
2019-05-30T19:31:26.438Z,8.53
2019-05-30T19:33:53.851Z,9.00
2019-05-30T19:36:21.222Z,8.73
2019-05-30T19:38:48.571Z,9.60
2019-05-30T19:41:15.828Z,8.70
2019-05-30T19:43:43.118Z,7.90
2019-05-30T19:46:13.148Z,8.50
2019-05-30T19:48:39.406Z,8.90
2019-05-30T19:51:06.692Z,9.00
2019-05-30T19:53:34.933Z,8.33
2019-05-30T19:56:02.528Z,8.17
2019-05-30T19:58:29.889Z,9.17
2019-05-30T20:00:59.042Z,9.43
2019-05-30T20:03:36.463Z,8.93
2019-05-30T20:05:55.181Z,9.17
2019-05-30T20:08:22.454Z,9.63
2019-05-30T20:10:49.777Z,9.40
2019-05-30T20:13:17.181Z,9.37
2019-05-30T20:15:44.445Z,9.43
2019-05-30T20:18:11.709Z,9.13
2019-05-30T20:20:53.639Z,9.60
2019-05-30T20:23:08.000Z,8.80
2019-05-30T20:25:37.364Z,9.57
2019-05-30T20:28:04.865Z,9.23
2019-05-30T20:30:32.916Z,9.80
2019-05-30T20:33:00.405Z,9.57
2019-05-30T20:35:27.736Z,9.63
2019-05-30T20:37:55.106Z,10.60
2019-05-30T20:40:22.449Z,11.20
2019-05-30T20:42:49.757Z,10.03
2019-05-30T20:45:17.417Z,12.47
2019-05-30T20:47:44.691Z,11.17
2019-05-30T20:50:14.901Z,13.23
2019-05-30T20:52:43.717Z,12.43
2019-05-30T20:55:10.779Z,11.67
2019-05-30T20:57:38.405Z,10.33
2019-05-30T21:00:09.334Z,10.60
2019-05-30T21:02:36.828Z,11.87
2019-05-30T21:05:07.867Z,13.23
2019-05-30T21:07:35.915Z,13.07
2019-05-30T21:10:04.318Z,13.13
2019-05-30T21:12:37.955Z,13.17
2019-05-30T21:15:02.366Z,14.50
2019-05-30T21:17:31.198Z,12.10
2019-05-30T21:19:58.535Z,12.07
2019-05-30T21:22:25.847Z,12.37
2019-05-30T21:24:53.112Z,13.30
2019-05-30T21:27:20.469Z,13.30
2019-05-30T21:29:47.768Z,13.37
2019-05-30T21:32:15.045Z,12.40
2019-05-30T21:34:43.944Z,11.87
2019-05-30T21:37:11.477Z,11.67
2019-05-30T21:39:39.926Z,10.77
2019-05-30T21:42:07.397Z,11.33
2019-05-30T21:44:34.774Z,10.60
2019-05-30T21:47:02.079Z,12.50
2019-05-30T21:49:29.410Z,11.20
2019-05-30T21:51:56.709Z,11.20
2019-05-30T21:54:24.033Z,12.50
2019-05-30T21:56:51.342Z,13.13
2019-05-30T21:59:18.647Z,14.03
2019-05-30T22:01:46.633Z,12.50
2019-05-30T22:04:14.225Z,13.60
2019-05-30T22:06:42.709Z,13.73
2019-05-30T22:09:10.723Z,13.23
2019-05-30T22:11:38.236Z,14.20
2019-05-30T22:14:06.404Z,13.43
2019-05-30T22:16:33.867Z,14.07
2019-05-30T22:19:01.206Z,14.47
2019-05-30T22:21:28.661Z,14.30
2019-05-30T22:23:55.988Z,15.27
2019-05-30T22:26:23.315Z,16.37
2019-05-30T22:28:50.688Z,14.33
2019-05-30T22:31:17.956Z,15.33
2019-05-30T22:33:45.241Z,14.77
2019-05-30T22:36:12.600Z,15.70
2019-05-30T22:38:39.973Z,15.30
2019-05-30T22:41:07.250Z,14.70
2019-05-30T22:43:34.617Z,13.60
2019-05-30T22:46:01.898Z,15.60
2019-05-30T22:48:29.168Z,15.07
2019-05-30T22:50:57.284Z,16.83
2019-05-30T22:53:24.633Z,13.70
2019-05-30T22:55:52.399Z,15.80
2019-05-30T22:58:20.920Z,14.37
2019-05-30T23:00:48.200Z,15.40
2019-05-30T23:03:17.541Z,16.10
2019-05-30T23:05:45.273Z,13.80
2019-05-30T23:08:12.661Z,14.53
2019-05-30T23:10:39.935Z,15.20
2019-05-30T23:13:07.250Z,17.00
2019-05-30T23:15:34.605Z,16.13
2019-05-30T23:18:01.891Z,15.77
2019-05-30T23:20:29.195Z,15.77
2019-05-30T23:22:57.147Z,15.47
2019-05-30T23:25:24.532Z,15.73
2019-05-30T23:27:51.832Z,16.37
2019-05-30T23:30:20.684Z,15.87
2019-05-30T23:32:48.435Z,16.93
2019-05-30T23:35:15.866Z,16.90
2019-05-30T23:37:43.139Z,14.87
2019-05-30T23:40:12.162Z,15.60
2019-05-30T23:42:39.461Z,15.60
2019-05-30T23:45:06.901Z,16.70
2019-05-30T23:47:34.258Z,16.70
2019-05-30T23:50:01.653Z,15.23
2019-05-30T23:52:29.001Z,16.40
2019-05-30T23:54:56.353Z,17.10
2019-05-30T23:57:23.753Z,16.60
2019-05-30T23:59:51.025Z,16.70
